createdAt,value
2024-03-21T06:43:09.628Z,678.00
2024-03-21T06:43:40.092Z,697.00
2024-03-21T06:44:10.507Z,705.00
2024-03-21T06:44:41.040Z,711.00
2024-03-21T06:45:11.764Z,681.00
2024-03-21T06:45:41.806Z,629.00
2024-03-21T06:46:13.424Z,601.00
2024-03-21T06:46:43.967Z,643.00
2024-03-21T06:47:13.757Z,705.00
2024-03-21T06:47:44.350Z,661.00
2024-03-21T06:48:15.076Z,581.00
2024-03-21T06:48:45.252Z,513.00
2024-03-21T06:49:16.824Z,458.00
2024-03-21T06:49:46.629Z,458.00
2024-03-21T06:50:17.150Z,514.00
2024-03-21T06:50:47.743Z,601.00
2024-03-21T06:51:18.323Z,665.00
2024-03-21T06:51:48.841Z,640.00
2024-03-21T06:52:19.351Z,591.00
2024-03-21T06:52:49.872Z,605.00
2024-03-21T06:53:20.374Z,658.00
2024-03-21T06:53:51.046Z,710.00
2024-03-21T06:54:21.855Z,782.00
2024-03-21T06:54:53.390Z,880.00
2024-03-21T06:55:22.998Z,1024.00
2024-03-21T06:55:53.212Z,1195.00
2024-03-21T06:56:24.207Z,1353.00
2024-03-21T06:56:55.189Z,1449.00
2024-03-21T06:57:25.005Z,1430.00
2024-03-21T06:57:58.172Z,1455.00
2024-03-21T06:58:25.426Z,1388.00
2024-03-21T06:58:56.415Z,1365.00
2024-03-21T06:59:26.572Z,1315.00
2024-03-21T06:59:56.934Z,1304.00
2024-03-21T07:00:27.350Z,1261.00
2024-03-21T07:00:57.648Z,1051.00
2024-03-21T07:01:28.448Z,872.00
2024-03-21T07:01:59.279Z,780.00
2024-03-21T07:02:30.136Z,642.00
2024-03-21T07:03:01.091Z,543.00
2024-03-21T07:03:31.318Z,501.00
2024-03-21T07:04:01.658Z,476.00
2024-03-21T07:04:31.947Z,453.00
2024-03-21T07:05:03.909Z,430.00
2024-03-21T07:05:33.200Z,408.00
2024-03-21T07:06:03.499Z,431.00
2024-03-21T07:06:34.138Z,503.00
2024-03-21T07:07:04.887Z,550.00
2024-03-21T07:07:35.190Z,580.00
2024-03-21T07:08:05.885Z,612.00
2024-03-21T07:08:36.947Z,674.00
2024-03-21T07:09:07.535Z,765.00
2024-03-21T07:09:37.805Z,917.00
2024-03-21T07:10:08.259Z,966.00
2024-03-21T07:10:39.317Z,988.00
2024-03-21T07:11:09.472Z,966.00
2024-03-21T07:11:40.014Z,984.00
2024-03-21T07:12:10.264Z,1007.00
2024-03-21T07:12:42.342Z,1055.00
2024-03-21T07:13:11.304Z,996.00
2024-03-21T07:13:42.028Z,893.00
2024-03-21T07:14:12.797Z,864.00
2024-03-21T07:14:43.405Z,885.00
2024-03-21T07:15:14.124Z,938.00
2024-03-21T07:15:44.821Z,1050.00
2024-03-21T07:16:15.480Z,1199.00
2024-03-21T07:16:46.347Z,1289.00
2024-03-21T07:17:17.050Z,1474.00
2024-03-21T07:17:47.892Z,1730.00
2024-03-21T07:18:18.042Z,1917.00
2024-03-21T07:18:48.926Z,1972.00
2024-03-21T07:19:19.687Z,1985.00
2024-03-21T07:19:49.912Z,2070.00
2024-03-21T07:20:20.784Z,2057.00
2024-03-21T07:20:50.884Z,1982.00
2024-03-21T07:21:21.604Z,1900.00
2024-03-21T07:21:51.800Z,2010.00
2024-03-21T07:22:23.457Z,2009.00
2024-03-21T07:22:52.721Z,1764.00
2024-03-21T07:23:22.996Z,1526.00
2024-03-21T07:23:53.718Z,1335.00
2024-03-21T07:24:24.304Z,1129.00
2024-03-21T07:24:54.885Z,967.00
2024-03-21T07:25:25.540Z,864.00
2024-03-21T07:25:58.330Z,844.00
2024-03-21T07:26:26.990Z,829.00
2024-03-21T07:26:57.592Z,855.00
2024-03-21T07:27:27.881Z,905.00
2024-03-21T07:27:58.563Z,992.00
2024-03-21T07:28:28.757Z,1076.00
2024-03-21T07:28:59.831Z,1086.00
2024-03-21T07:29:30.474Z,1030.00
2024-03-21T07:30:00.980Z,908.00
2024-03-21T07:30:31.362Z,805.00
2024-03-21T07:31:02.210Z,735.00
2024-03-21T07:31:32.381Z,686.00
2024-03-21T07:32:02.782Z,692.00
2024-03-21T07:32:32.988Z,760.00
2024-03-21T07:33:03.826Z,754.00
2024-03-21T07:33:34.075Z,722.00
2024-03-21T07:34:04.293Z,701.00
2024-03-21T07:34:35.056Z,670.00
2024-03-21T07:35:05.958Z,652.00
2024-03-21T07:35:36.038Z,627.00
2024-03-21T07:36:06.356Z,590.00
2024-03-21T07:36:36.972Z,592.00
2024-03-21T07:37:07.531Z,612.00
2024-03-21T07:37:37.770Z,637.00
2024-03-21T07:38:08.383Z,639.00
2024-03-21T07:38:39.323Z,617.00
2024-03-21T07:39:10.016Z,563.00
2024-03-21T07:39:40.802Z,539.00
2024-03-21T07:40:11.757Z,563.00
2024-03-21T07:40:42.342Z,636.00
2024-03-21T07:41:13.003Z,739.00
2024-03-21T07:41:43.881Z,790.00
2024-03-21T07:42:14.174Z,733.00
2024-03-21T07:42:44.703Z,650.00
2024-03-21T07:43:15.327Z,601.00
2024-03-21T07:43:45.785Z,578.00
2024-03-21T07:44:17.389Z,564.00
2024-03-21T07:44:46.907Z,576.00
2024-03-21T07:45:17.661Z,608.00
2024-03-21T07:45:48.422Z,585.00
2024-03-21T07:46:18.892Z,562.00
2024-03-21T07:46:50.120Z,582.00
2024-03-21T07:47:19.831Z,577.00
2024-03-21T07:47:50.028Z,562.00
2024-03-21T07:48:21.681Z,574.00
2024-03-21T07:48:51.206Z,635.00
2024-03-21T07:49:21.926Z,635.00
2024-03-21T07:49:52.908Z,585.00
2024-03-21T07:50:23.633Z,553.00
2024-03-21T07:50:53.388Z,559.00
2024-03-21T07:51:23.912Z,571.00
2024-03-21T07:51:54.434Z,577.00
2024-03-21T07:52:24.926Z,565.00
2024-03-21T07:52:55.727Z,520.00
2024-03-21T07:53:26.349Z,523.00
2024-03-21T07:53:57.005Z,548.00
2024-03-21T07:54:27.284Z,551.00
2024-03-21T07:54:57.928Z,521.00
2024-03-21T07:55:28.758Z,523.00
2024-03-21T07:55:58.690Z,583.00
2024-03-21T07:56:29.165Z,576.00
2024-03-21T07:56:59.755Z,539.00
2024-03-21T07:57:30.097Z,565.00
2024-03-21T07:58:00.769Z,607.00
2024-03-21T07:58:31.411Z,608.00
2024-03-21T07:59:02.432Z,607.00
2024-03-21T07:59:32.803Z,611.00
2024-03-21T08:00:03.666Z,661.00
2024-03-21T08:00:34.255Z,768.00
2024-03-21T08:01:07.065Z,798.00
2024-03-21T08:01:36.068Z,741.00
2024-03-21T08:02:06.343Z,752.00
2024-03-21T08:02:36.982Z,871.00
2024-03-21T08:03:07.091Z,999.00
2024-03-21T08:03:37.966Z,1004.00
2024-03-21T08:04:08.507Z,829.00
2024-03-21T08:04:39.345Z,608.00
2024-03-21T08:05:09.905Z,532.00
2024-03-21T08:05:40.191Z,555.00
2024-03-21T08:06:10.284Z,644.00
2024-03-21T08:06:40.797Z,754.00
2024-03-21T08:07:11.494Z,733.00
2024-03-21T08:07:42.027Z,633.00
2024-03-21T08:08:12.584Z,591.00
2024-03-21T08:08:43.123Z,566.00
2024-03-21T08:09:14.017Z,620.00
2024-03-21T08:09:44.153Z,587.00
2024-03-21T08:10:14.867Z,541.00
2024-03-21T08:10:45.705Z,529.00
2024-03-21T08:11:16.261Z,518.00
2024-03-21T08:11:46.747Z,529.00
2024-03-21T08:12:16.999Z,554.00
2024-03-21T08:12:48.540Z,556.00
2024-03-21T08:13:17.871Z,516.00
2024-03-21T08:13:48.591Z,510.00
2024-03-21T08:14:18.824Z,522.00
2024-03-21T08:14:48.973Z,544.00
2024-03-21T08:15:20.236Z,564.00
2024-03-21T08:15:49.988Z,592.00
2024-03-21T08:16:20.675Z,603.00
2024-03-21T08:16:51.078Z,601.00
2024-03-21T08:17:21.372Z,576.00
2024-03-21T08:17:51.565Z,566.00
2024-03-21T08:18:22.574Z,545.00
2024-03-21T08:18:52.960Z,522.00
2024-03-21T08:19:23.060Z,517.00
2024-03-21T08:19:53.770Z,517.00
2024-03-21T08:20:25.901Z,514.00
2024-03-21T08:20:54.790Z,500.00
2024-03-21T08:21:25.632Z,474.00
2024-03-21T08:21:56.225Z,437.00
2024-03-21T08:22:26.862Z,406.00
2024-03-21T08:22:57.220Z,404.00
2024-03-21T08:23:27.988Z,420.00
2024-03-21T08:23:58.616Z,439.00
2024-03-21T08:24:29.532Z,461.00
2024-03-21T08:24:59.605Z,441.00
2024-03-21T08:25:29.802Z,443.00
2024-03-21T08:26:00.481Z,470.00
2024-03-21T08:26:31.669Z,475.00
2024-03-21T08:27:01.482Z,476.00
2024-03-21T08:27:32.572Z,471.00
2024-03-21T08:28:03.276Z,477.00
2024-03-21T08:28:33.451Z,517.00
2024-03-21T08:29:04.222Z,579.00
2024-03-21T08:29:34.425Z,609.00
2024-03-21T08:30:05.191Z,579.00
2024-03-21T08:30:35.737Z,518.00
2024-03-21T08:31:06.337Z,461.00
2024-03-21T08:31:36.819Z,448.00
2024-03-21T08:32:07.147Z,477.00
2024-03-21T08:32:37.378Z,503.00
2024-03-21T08:33:09.239Z,521.00
2024-03-21T08:33:38.831Z,528.00
2024-03-21T08:34:09.244Z,539.00
2024-03-21T08:34:39.766Z,564.00
2024-03-21T08:35:10.359Z,577.00
2024-03-21T08:35:41.112Z,557.00
2024-03-21T08:36:11.391Z,523.00
2024-03-21T08:36:42.012Z,535.00
2024-03-21T08:37:12.662Z,562.00
2024-03-21T08:37:43.450Z,576.00
2024-03-21T08:38:14.024Z,548.00
2024-03-21T08:38:44.276Z,503.00
2024-03-21T08:39:14.826Z,473.00
2024-03-21T08:39:46.568Z,467.00
2024-03-21T08:40:16.071Z,475.00
2024-03-21T09:19:04.286Z,1120.00
2024-03-21T09:19:35.054Z,1337.00
2024-03-21T09:20:16.123Z,1431.00
2024-03-21T09:20:36.436Z,1328.00
2024-03-21T09:21:26.902Z,1309.00
2024-03-21T09:23:04.874Z,1060.00
2024-03-21T09:23:35.438Z,1030.00
2024-03-21T09:24:06.171Z,1011.00
2024-03-21T09:24:47.169Z,955.00
2024-03-21T09:25:07.571Z,882.00
2024-03-21T09:25:38.259Z,777.00
2024-03-21T09:26:16.960Z,716.00
2024-03-21T09:26:49.720Z,734.00
2024-03-21T09:27:15.154Z,805.00
2024-03-21T09:29:00.416Z,1087.00
2024-03-21T09:29:31.028Z,1087.00
2024-03-21T09:30:10.860Z,1073.00
2024-03-21T09:30:31.793Z,1078.00
2024-03-21T09:31:02.337Z,1121.00
2024-03-21T09:31:32.782Z,1084.00
2024-03-21T09:32:03.384Z,983.00
2024-03-21T09:32:33.951Z,1015.00
2024-03-21T09:33:04.645Z,1144.00
2024-03-21T09:33:43.442Z,1262.00
2024-03-21T09:34:05.923Z,1338.00
2024-03-21T09:34:45.774Z,1222.00
2024-03-21T09:35:06.967Z,1232.00
2024-03-21T09:35:47.444Z,1255.00
2024-03-21T09:36:15.512Z,1331.00
2024-03-21T09:36:38.611Z,1528.00
2024-03-21T09:37:09.098Z,1595.00
2024-03-21T09:37:39.712Z,1601.00
2024-03-21T09:38:18.383Z,1691.00
2024-03-21T09:38:40.869Z,1701.00
2024-03-21T09:39:11.526Z,1678.00
2024-03-21T09:39:42.156Z,1649.00
2024-03-21T09:40:12.688Z,1707.00
2024-03-21T09:40:43.352Z,1701.00
2024-03-21T09:41:13.772Z,1602.00
2024-03-21T09:41:44.296Z,1675.00
2024-03-21T09:42:14.710Z,1641.00
2024-03-21T09:42:45.210Z,1534.00
2024-03-21T09:43:24.781Z,1453.00
2024-03-21T09:43:54.560Z,1426.00
2024-03-21T09:44:16.934Z,1353.00
2024-03-21T09:44:47.372Z,1317.00
2024-03-21T09:45:26.069Z,1230.00
2024-03-21T09:45:48.344Z,1122.00
2024-03-21T09:46:28.506Z,1116.00
2024-03-21T09:47:08.128Z,1204.00
2024-03-21T09:47:20.267Z,1455.00
2024-03-21T09:48:00.074Z,1655.00
2024-03-21T09:48:22.100Z,1721.00
2024-03-21T09:48:59.001Z,1697.00
2024-03-21T09:49:22.185Z,1535.00
2024-03-21T09:50:00.649Z,1409.00
2024-03-21T09:50:32.675Z,1342.00
2024-03-21T09:50:53.584Z,1274.00
2024-03-21T09:51:32.020Z,1221.00
2024-03-21T09:51:54.397Z,1237.00
2024-03-21T09:52:34.138Z,1348.00
2024-03-21T09:52:55.865Z,1425.00
2024-03-21T09:53:26.390Z,1273.00
2024-03-21T09:53:59.625Z,1128.00
2024-03-21T09:54:41.131Z,1120.00
2024-03-21T09:54:58.110Z,1096.00
2024-03-21T09:55:38.215Z,1095.00
2024-03-21T09:55:59.690Z,1142.00
2024-03-21T09:56:29.465Z,1215.00
2024-03-21T09:57:10.770Z,1240.00
2024-03-21T09:58:59.336Z,1042.00
2024-03-21T09:59:27.884Z,956.00
2024-03-21T10:00:08.286Z,873.00
2024-03-21T10:00:29.989Z,854.00
2024-03-21T10:01:09.502Z,844.00
2024-03-21T10:01:30.499Z,861.00
2024-03-21T10:02:09.086Z,903.00
2024-03-21T10:02:31.442Z,936.00
2024-03-21T10:03:01.866Z,971.00
2024-03-21T10:03:32.405Z,990.00
2024-03-21T10:04:12.103Z,1013.00
2024-03-21T10:04:34.216Z,1021.00
2024-03-21T10:05:13.117Z,1020.00
2024-03-21T10:05:34.836Z,1043.00
2024-03-21T10:06:14.152Z,1079.00
2024-03-21T10:06:44.596Z,1121.00
2024-03-21T10:07:06.273Z,1124.00
2024-03-21T10:07:44.719Z,1165.00
2024-03-21T10:08:07.313Z,1252.00
2024-03-21T10:08:45.682Z,1331.00
2024-03-21T10:09:17.219Z,1371.00
2024-03-21T10:09:39.699Z,1432.00
2024-03-21T10:10:20.178Z,1509.00
2024-03-21T10:10:40.415Z,1570.00
2024-03-21T10:11:10.856Z,1606.00
2024-03-21T10:11:41.378Z,1604.00
2024-03-21T10:12:21.288Z,1667.00
2024-03-21T10:12:42.592Z,1669.00
2024-03-21T10:13:20.420Z,1551.00
2024-03-21T10:13:43.005Z,1376.00
2024-03-21T10:14:14.547Z,1303.00
2024-03-21T10:14:55.265Z,1268.00
2024-03-21T10:15:26.149Z,1265.00
2024-03-21T10:15:45.191Z,1316.00
2024-03-21T10:16:23.787Z,1388.00
2024-03-21T10:16:46.272Z,1485.00
2024-03-21T10:17:25.419Z,1584.00
2024-03-21T10:17:47.762Z,1628.00
2024-03-21T10:18:32.006Z,1537.00
2024-03-21T10:18:48.663Z,1450.00
2024-03-21T10:20:43.912Z,1346.00
2024-03-21T10:21:47.344Z,1267.00
2024-03-21T10:21:48.397Z,1274.00
2024-03-21T10:22:18.981Z,1380.00
2024-03-21T10:24:15.284Z,1885.00
2024-03-21T10:24:54.815Z,1716.00
2024-03-21T10:25:16.547Z,1616.00
2024-03-21T10:25:58.619Z,1618.00
2024-03-21T10:26:17.486Z,1560.00
2024-03-21T10:26:48.037Z,1613.00
2024-03-21T10:27:18.601Z,1524.00
2024-03-21T10:27:59.337Z,1451.00
2024-03-21T10:28:19.670Z,1498.00
2024-03-21T10:28:58.279Z,1634.00
2024-03-21T10:29:28.330Z,1650.00
2024-03-21T10:29:51.323Z,1603.00
2024-03-21T10:30:21.852Z,1637.00
2024-03-21T10:31:03.250Z,1650.00
2024-03-21T10:31:22.887Z,1744.00
2024-03-21T10:31:53.584Z,1903.00
2024-03-21T10:32:24.105Z,2147.00
2024-03-21T10:33:02.786Z,2279.00
2024-03-21T10:33:25.093Z,2392.00
2024-03-21T10:34:04.812Z,2165.00
2024-03-21T10:34:36.362Z,2234.00
2024-03-21T10:35:04.558Z,2794.00
2024-03-21T10:35:34.992Z,3124.00
2024-03-21T10:37:24.461Z,2558.00
2024-03-21T10:38:04.876Z,2528.00
2024-03-21T10:38:40.027Z,2738.00
2024-03-21T10:39:05.332Z,3048.00
2024-03-21T10:39:34.971Z,3165.00
2024-03-21T10:39:57.429Z,3083.00
2024-03-21T10:40:38.558Z,2968.00
2024-03-21T10:40:58.314Z,2883.00
2024-03-21T10:41:37.551Z,2855.00
2024-03-21T10:41:59.306Z,2934.00
2024-03-21T10:42:39.436Z,2917.00
2024-03-21T10:43:00.404Z,2774.00
2024-03-21T10:43:31.283Z,2649.00
2024-03-21T10:44:01.406Z,2352.00
2024-03-21T10:44:41.918Z,2196.00
2024-03-21T10:45:02.464Z,1999.00
2024-03-21T10:45:41.006Z,1958.00
2024-03-21T10:46:11.002Z,2007.00
2024-03-21T10:46:43.483Z,1916.00
2024-03-21T10:47:04.389Z,1906.00
2024-03-21T10:47:34.872Z,1898.00
2024-03-21T10:48:13.482Z,1841.00
2024-03-21T10:48:35.762Z,1787.00
2024-03-21T10:49:06.232Z,1802.00
2024-03-21T10:49:36.699Z,1688.00
2024-03-21T10:50:14.973Z,1666.00
2024-03-21T10:50:45.781Z,1756.00
2024-03-21T10:51:16.605Z,1848.00
2024-03-21T10:51:39.707Z,1852.00
2024-03-21T10:52:19.528Z,1821.00
2024-03-21T10:52:48.574Z,1708.00
2024-03-21T10:53:21.203Z,1609.00
2024-03-21T10:53:49.119Z,1575.00
2024-03-21T10:54:12.156Z,1425.00
2024-03-21T10:54:50.851Z,1660.00
2024-03-21T10:55:13.208Z,1990.00
2024-03-21T10:55:52.186Z,2189.00
2024-03-21T10:56:14.723Z,2188.00
2024-03-21T10:56:45.279Z,2056.00
2024-03-21T10:57:25.215Z,2050.00
2024-03-21T10:57:46.226Z,2004.00
2024-03-21T10:58:25.544Z,2017.00
2024-03-21T10:58:55.209Z,2192.00
2024-03-21T10:59:26.375Z,2187.00
2024-03-21T10:59:48.330Z,2066.00
2024-03-21T11:00:28.811Z,1953.00
2024-03-21T11:00:49.042Z,1978.00
2024-03-21T11:02:45.485Z,1877.00
2024-03-21T11:03:24.205Z,2105.00
2024-03-21T11:03:46.826Z,2205.00
2024-03-21T11:04:17.347Z,2143.00
2024-03-21T11:04:48.003Z,2038.00
2024-03-21T11:05:19.892Z,1982.00
2024-03-21T11:05:49.022Z,1902.00
2024-03-21T11:06:21.717Z,2007.00
2024-03-21T11:06:59.915Z,2086.00
2024-03-21T11:07:20.302Z,1998.00
2024-03-21T11:07:58.746Z,1810.00
2024-03-21T11:08:28.773Z,1763.00
2024-03-21T11:08:51.898Z,1842.00
2024-03-21T11:09:30.266Z,1961.00
2024-03-21T11:09:53.272Z,2096.00
2024-03-21T11:10:32.834Z,2299.00
2024-03-21T11:10:54.479Z,2302.00
2024-03-21T11:11:24.887Z,2172.00
2024-03-21T11:12:03.767Z,2013.00
2024-03-21T11:12:26.112Z,1899.00
2024-03-21T11:13:05.792Z,1814.00
2024-03-21T11:13:27.531Z,1833.00
2024-03-21T11:14:05.825Z,1923.00
2024-03-21T11:14:38.321Z,2077.00
2024-03-21T11:14:59.269Z,2164.00
2024-03-21T11:15:39.115Z,2117.00
2024-03-21T11:16:00.114Z,2093.00
2024-03-21T11:16:31.729Z,2190.00
2024-03-21T11:17:08.909Z,2137.00
2024-03-21T11:18:59.356Z,1904.00
2024-03-21T11:19:28.505Z,1968.00
2024-03-21T11:20:07.615Z,1910.00
2024-03-21T11:20:30.130Z,1760.00
2024-03-21T11:21:00.822Z,1724.00
2024-03-21T11:21:31.355Z,1793.00
2024-03-21T11:22:09.839Z,1856.00
2024-03-21T11:23:59.001Z,1915.00
2024-03-21T11:24:29.583Z,1933.00
2024-03-21T11:25:00.133Z,2010.00
2024-03-21T11:26:57.379Z,1967.00
2024-03-21T11:27:28.155Z,1812.00
2024-03-21T11:28:06.872Z,2222.00
2024-03-21T11:28:29.410Z,2320.00
2024-03-21T11:29:11.381Z,2375.00
2024-03-21T11:29:37.641Z,2377.00
2024-03-21T11:30:01.329Z,2404.00
2024-03-21T11:30:52.487Z,2528.00
2024-03-21T11:31:02.612Z,2522.00
2024-03-21T11:31:41.511Z,2420.00
2024-03-21T11:32:03.981Z,2422.00
2024-03-21T11:32:42.420Z,2322.00
2024-03-21T11:34:32.895Z,1940.00
2024-03-21T11:35:08.498Z,1965.00
2024-03-21T11:35:31.583Z,2058.00
2024-03-21T11:36:11.354Z,2101.00
2024-03-21T11:36:40.472Z,2137.00
2024-03-21T11:37:02.785Z,2201.00
2024-03-21T11:37:34.236Z,2084.00
2024-03-21T11:38:11.966Z,1938.00
2024-03-21T11:38:34.255Z,1889.00
2024-03-21T11:39:12.434Z,1827.00
2024-03-21T11:39:35.422Z,1806.00
2024-03-21T11:40:13.965Z,1885.00
2024-03-21T11:40:44.438Z,1607.00
2024-03-21T11:41:16.019Z,1867.00
2024-03-21T11:41:37.147Z,1865.00
2024-03-21T11:42:07.688Z,1837.00
2024-03-21T11:42:48.465Z,1997.00
2024-03-21T11:43:16.499Z,2306.00
2024-03-21T11:43:39.620Z,2406.00
2024-03-21T11:44:18.555Z,2417.00
2024-03-21T11:44:40.809Z,2304.00
2024-03-21T11:45:19.012Z,2235.00
2024-03-21T11:45:51.069Z,2216.00
2024-03-21T11:46:12.686Z,2148.00
2024-03-21T11:48:02.830Z,2119.00
2024-03-21T11:48:41.404Z,2114.00
2024-03-21T11:49:04.114Z,2104.00
2024-03-21T11:49:41.969Z,2112.00
2024-03-21T11:50:04.621Z,2110.00
2024-03-21T11:50:42.407Z,2108.00
2024-03-21T11:51:04.684Z,2065.00
2024-03-21T11:51:35.300Z,2026.00
2024-03-21T11:52:13.946Z,1865.00
2024-03-21T11:52:43.986Z,1752.00
2024-03-21T11:53:18.038Z,1756.00
2024-03-21T11:53:44.563Z,1811.00
2024-03-21T11:54:15.566Z,1806.00
2024-03-21T11:54:46.024Z,1723.00
2024-03-21T11:55:18.167Z,1773.00
2024-03-21T11:55:48.118Z,1814.00
2024-03-21T11:56:19.130Z,1889.00
2024-03-21T11:56:48.152Z,1875.00
2024-03-21T11:57:24.615Z,1846.00
2024-03-21T11:57:41.327Z,1833.00
2024-03-21T11:58:11.111Z,1781.00
2024-03-21T12:00:01.832Z,1948.00
2024-03-21T12:00:40.140Z,1932.00
2024-03-21T12:01:02.672Z,1827.00
2024-03-21T12:01:33.206Z,1788.00
2024-03-21T12:02:13.966Z,2017.00
2024-03-21T12:02:44.104Z,2046.00
2024-03-21T12:03:05.252Z,2076.00
2024-03-21T12:03:43.525Z,2178.00
2024-03-21T12:04:14.932Z,1952.00
2024-03-21T12:04:37.874Z,1884.00
2024-03-21T12:05:17.170Z,2079.00
2024-03-21T12:05:39.117Z,2291.00
2024-03-21T12:06:08.978Z,2278.00
2024-03-21T12:06:49.302Z,2302.00
2024-03-21T12:07:10.003Z,2264.00
2024-03-21T12:07:56.077Z,2237.00
2024-03-21T12:08:20.649Z,1992.00
2024-03-21T12:08:49.580Z,2105.00
2024-03-21T12:09:19.650Z,1992.00
2024-03-21T12:09:42.956Z,2043.00
2024-03-21T12:10:28.387Z,2095.00
2024-03-21T12:10:43.931Z,2105.00
2024-03-21T12:11:23.394Z,1995.00
2024-03-21T12:11:54.233Z,2185.00
2024-03-21T12:12:23.709Z,2050.00
2024-03-21T12:12:49.303Z,2262.00
2024-03-21T12:13:25.328Z,2197.00
2024-03-21T12:15:08.933Z,1913.00
2024-03-21T12:15:38.176Z,2173.00
2024-03-21T12:16:17.033Z,2206.00
2024-03-21T12:16:39.891Z,2206.00
2024-03-21T12:18:35.537Z,2235.00
2024-03-21T12:19:18.314Z,2242.00
2024-03-21T12:19:47.337Z,2357.00
2024-03-21T12:20:07.037Z,2409.00
2024-03-21T12:20:37.613Z,2340.00
2024-03-21T12:21:16.206Z,2245.00
2024-03-21T12:21:50.508Z,2220.00
2024-03-21T12:22:09.477Z,2160.00
2024-03-21T12:22:48.064Z,2176.00
2024-03-21T12:23:18.009Z,1915.00
2024-03-21T12:23:41.185Z,1881.00
2024-03-21T12:24:19.473Z,1821.00
2024-03-21T12:24:44.217Z,1814.00
2024-03-21T12:25:13.125Z,1929.00
2024-03-21T12:25:43.625Z,2110.00
2024-03-21T12:26:14.407Z,2076.00
2024-03-21T12:26:44.864Z,2035.00
2024-03-21T12:27:24.484Z,2006.00
2024-03-21T12:27:53.533Z,1689.00
2024-03-21T12:28:23.560Z,1692.00
2024-03-21T12:28:46.786Z,1760.00
2024-03-21T12:29:25.634Z,1727.00
2024-03-21T12:29:47.932Z,1891.00
2024-03-21T12:30:18.416Z,1946.00
2024-03-21T12:30:49.512Z,1979.00
2024-03-21T12:31:27.063Z,1980.00
2024-03-21T12:31:58.115Z,1945.00
2024-03-21T12:32:30.178Z,1693.00
2024-03-21T12:32:59.149Z,1829.00
2024-03-21T12:33:30.083Z,1919.00
2024-03-21T12:33:59.642Z,1810.00
2024-03-21T12:34:22.491Z,2111.00
2024-03-21T12:35:00.213Z,2080.00
2024-03-21T12:35:30.268Z,2084.00
2024-03-21T12:35:53.386Z,2046.00
2024-03-21T12:36:34.657Z,2039.00
2024-03-21T12:36:54.649Z,2146.00
2024-03-21T12:37:33.847Z,2236.00
2024-03-21T12:37:55.977Z,2209.00
2024-03-21T12:38:32.811Z,2222.00
2024-03-21T12:39:04.768Z,1922.00
2024-03-21T12:39:26.493Z,2141.00
2024-03-21T12:40:07.903Z,2130.00
2024-03-21T12:40:36.298Z,1827.00
2024-03-21T12:40:58.274Z,1764.00
2024-03-21T12:41:37.366Z,1861.00
2024-03-21T12:41:58.486Z,1987.00
2024-03-21T12:42:36.970Z,2089.00
2024-03-21T12:43:08.397Z,1898.00
2024-03-21T12:43:37.875Z,1995.00
2024-03-21T12:44:01.140Z,1951.00
2024-03-21T12:44:40.913Z,1904.00
2024-03-21T12:45:01.991Z,1864.00
2024-03-21T12:45:40.463Z,1851.00
2024-03-21T12:46:02.946Z,1831.00
2024-03-21T12:46:33.461Z,1909.00
2024-03-21T12:47:12.003Z,1905.00
2024-03-21T12:47:34.326Z,1904.00
2024-03-21T12:48:04.848Z,1924.00
2024-03-21T12:48:35.476Z,1907.00
2024-03-21T12:49:06.381Z,1885.00
2024-03-21T12:49:36.224Z,1882.00
2024-03-21T12:50:06.694Z,1914.00
2024-03-21T12:50:44.988Z,1954.00
2024-03-21T12:51:08.235Z,1947.00
2024-03-21T12:51:38.763Z,1917.00
2024-03-21T12:52:09.273Z,1870.00
2024-03-21T12:52:39.986Z,1867.00
2024-03-21T12:53:10.581Z,1893.00
2024-03-21T12:53:49.059Z,1930.00
2024-03-21T12:54:19.989Z,1973.00
2024-03-21T12:54:51.068Z,2005.00
2024-03-21T12:55:13.140Z,2047.00
2024-03-21T12:55:51.109Z,2036.00
2024-03-21T12:56:13.806Z,2019.00
2024-03-21T12:56:51.508Z,1974.00
2024-03-21T12:57:14.632Z,1973.00
2024-03-21T12:57:54.163Z,1969.00
2024-03-21T12:58:23.566Z,2008.00
2024-03-21T12:58:54.598Z,2022.00
2024-03-21T12:59:24.660Z,1998.00
2024-03-21T12:59:48.116Z,1588.00
2024-03-21T13:00:28.037Z,1639.00
2024-03-21T13:00:50.286Z,1607.00
2024-03-21T13:01:19.072Z,1615.00
2024-03-21T13:01:59.402Z,1607.00
2024-03-21T13:02:20.002Z,1768.00
2024-03-21T13:02:49.767Z,1816.00
2024-03-21T13:03:31.843Z,1673.00
2024-03-21T13:03:50.735Z,1813.00
2024-03-21T13:04:36.703Z,1819.00
2024-03-21T13:04:51.572Z,1803.00
2024-03-21T13:05:30.951Z,1796.00
2024-03-21T13:06:03.068Z,1450.00
2024-03-21T13:06:23.316Z,1460.00
2024-03-21T13:07:01.921Z,1461.00
2024-03-21T13:07:24.240Z,1480.00
2024-03-21T13:09:21.830Z,1471.00
2024-03-21T13:09:51.582Z,1480.00
2024-03-21T13:10:36.405Z,1488.00
2024-03-21T13:10:52.648Z,1512.00
2024-03-21T13:11:23.612Z,1518.00
2024-03-21T13:12:03.443Z,1513.00
2024-03-21T13:12:23.856Z,1611.00
2024-03-21T13:13:03.526Z,1567.00
2024-03-21T13:13:33.039Z,1511.00
2024-03-21T13:14:05.092Z,1487.00
2024-03-21T13:14:34.144Z,1555.00
2024-03-21T13:14:56.512Z,1852.00
2024-03-21T13:16:43.035Z,1901.00
2024-03-21T13:17:21.707Z,1901.00
2024-03-21T13:17:44.205Z,1896.00
2024-03-21T13:18:22.659Z,1911.00
2024-03-21T13:18:44.991Z,1920.00
2024-03-21T13:19:23.173Z,1888.00
2024-03-21T13:19:54.196Z,1914.00
2024-03-21T13:20:25.739Z,1934.00
2024-03-21T13:20:47.323Z,1941.00
2024-03-21T13:21:18.020Z,1909.00
2024-03-21T13:21:56.467Z,1847.00
2024-03-21T13:22:27.245Z,1629.00
2024-03-21T13:22:50.586Z,1537.00
2024-03-21T13:23:19.738Z,1524.00
2024-03-21T13:24:09.435Z,1680.00
2024-03-21T13:24:20.881Z,1584.00
2024-03-21T13:25:01.248Z,1729.00
2024-03-21T13:25:22.284Z,1606.00
2024-03-21T13:26:01.667Z,1668.00
2024-03-21T13:26:23.566Z,1712.00
2024-03-21T13:26:54.347Z,1698.00
2024-03-21T13:27:36.061Z,1680.00
2024-03-21T13:27:55.720Z,1663.00
2024-03-21T13:28:35.447Z,1499.00
2024-03-21T13:28:57.151Z,1574.00
2024-03-21T13:29:37.449Z,1550.00
2024-03-21T13:29:58.850Z,1664.00
2024-03-21T13:31:00.541Z,1631.00
2024-03-21T13:31:01.758Z,1598.00
2024-03-21T13:31:32.443Z,1578.00
2024-03-21T13:32:03.589Z,1605.00
2024-03-21T13:32:33.458Z,1591.00
2024-03-21T13:33:03.963Z,1580.00
2024-03-21T13:35:01.446Z,1597.00
2024-03-21T13:35:39.389Z,1534.00
2024-03-21T13:36:01.758Z,1471.00
2024-03-21T13:36:32.269Z,1466.00
2024-03-21T13:37:13.330Z,1491.00
2024-03-21T13:37:34.382Z,1435.00
2024-03-21T13:38:04.286Z,1408.00
2024-03-21T13:38:34.864Z,1480.00
2024-03-21T13:39:14.552Z,1581.00
2024-03-21T13:39:36.353Z,1609.00
2024-03-21T13:40:06.792Z,1644.00
2024-03-21T13:40:45.104Z,1662.00
2024-03-21T13:41:16.183Z,1598.00
2024-03-21T13:41:38.583Z,1732.00
2024-03-21T13:42:17.168Z,1621.00
2024-03-21T13:42:39.566Z,1629.00
2024-03-21T13:43:19.147Z,1581.00
2024-03-21T13:43:40.849Z,1562.00
2024-03-21T13:44:22.333Z,1529.00
2024-03-21T13:44:51.717Z,1532.00
2024-03-21T13:45:22.215Z,1513.00
2024-03-21T13:45:43.316Z,1538.00
2024-03-21T13:46:21.874Z,1527.00
2024-03-21T13:46:53.268Z,1558.00
2024-03-21T13:47:22.824Z,1534.00
2024-03-21T13:47:45.247Z,1588.00
2024-03-21T13:49:43.482Z,1530.00
2024-03-21T13:50:13.930Z,1559.00
2024-03-21T13:50:54.831Z,1714.00
2024-03-21T13:51:14.430Z,1609.00
2024-03-21T13:51:54.596Z,1603.00
2024-03-21T13:52:15.665Z,1639.00
2024-03-21T13:52:54.074Z,1716.00
2024-03-21T13:53:16.461Z,1880.00
2024-03-21T13:53:56.225Z,1839.00
2024-03-21T13:54:18.009Z,1850.00
2024-03-21T13:54:56.648Z,1561.00
2024-03-21T13:55:30.249Z,1821.00
2024-03-21T13:55:57.804Z,1629.00
2024-03-21T13:56:20.254Z,1823.00
2024-03-21T13:56:50.797Z,1649.00
2024-03-21T13:57:30.711Z,1649.00
2024-03-21T13:57:51.678Z,1836.00
2024-03-21T13:58:22.211Z,1860.00
2024-03-21T13:59:13.336Z,1883.00
2024-03-21T13:59:23.352Z,1898.00
2024-03-21T14:00:06.757Z,1875.00
2024-03-21T14:00:24.433Z,1811.00
2024-03-21T14:00:55.081Z,1888.00